Time;durP1;ratioP1;P1;durP2;ratioP2;P2;SDS_P1;SDS_P2;PMS_P1;PMS_P2;Temp;Humidity;BMP_temperature;BMP_pressure;BME280_temperature;BME280_humidity;BME280_pressure;Samples;Min_cycle;Max_cycle;Signal;HPM_P1;HPM_P2
2023/03/19 00:00:13;;;;;;;33.30;20.33;;;8.40;99.90;;;;;;2095329;28;20032;-76
2023/03/19 00:01:14;;;;;;;31.58;19.55;;;8.40;99.90;;;;;;2097462;28;20430;-74
2023/03/19 00:02:14;;;;;;;31.00;19.95;;;8.40;99.90;;;;;;2102213;28;20074;-74
2023/03/19 00:03:15;;;;;;;31.60;19.98;;;8.40;99.90;;;;;;2090969;28;20060;-76
2023/03/19 00:04:16;;;;;;;29.42;19.50;;;8.40;99.90;;;;;;2092359;28;20031;-76
2023/03/19 00:05:17;;;;;;;28.73;19.10;;;8.40;99.90;;;;;;2087087;28;20040;-74
2023/03/19 00:06:18;;;;;;;30.38;19.27;;;8.40;99.90;;;;;;2087360;28;20037;-76
2023/03/19 00:07:19;;;;;;;28.55;18.45;;;8.40;99.90;;;;;;2092180;28;20045;-74
2023/03/19 00:08:20;;;;;;;27.58;18.23;;;8.40;99.90;;;;;;2082448;28;20037;-74
2023/03/19 00:09:21;;;;;;;29.90;18.45;;;8.40;99.90;;;;;;2067106;28;20030;-75
2023/03/19 00:10:21;;;;;;;28.38;17.65;;;8.40;99.90;;;;;;2074072;28;20033;-76
2023/03/19 00:11:22;;;;;;;26.10;17.00;;;8.40;99.90;;;;;;2080931;28;20733;-78
2023/03/19 00:12:23;;;;;;;26.48;16.65;;;8.40;99.90;;;;;;2086651;28;20059;-83
2023/03/19 00:13:23;;;;;;;29.75;18.73;;;8.40;99.90;;;;;;2096601;28;20142;-74
2023/03/19 00:14:24;;;;;;;28.27;18.80;;;8.40;99.90;;;;;;2082865;28;20068;-73
2023/03/19 00:15:25;;;;;;;29.20;18.98;;;8.40;99.90;;;;;;2076723;28;20079;-73
2023/03/19 00:16:25;;;;;;;28.00;18.85;;;8.40;99.90;;;;;;2096442;28;20028;-74
2023/03/19 00:17:26;;;;;;;30.05;19.23;;;8.40;99.90;;;;;;2092009;28;20068;-79
2023/03/19 00:18:27;;;;;;;29.95;19.13;;;8.40;99.90;;;;;;2086361;28;20028;-74
2023/03/19 00:19:28;;;;;;;30.38;19.55;;;8.40;99.90;;;;;;2079890;28;20446;-74
2023/03/19 00:20:28;;;;;;;30.08;19.45;;;8.40;99.90;;;;;;2094783;28;20062;-75
2023/03/19 00:21:30;;;;;;;28.70;18.42;;;8.40;99.90;;;;;;2091565;28;20464;-75
2023/03/19 00:22:30;;;;;;;28.02;18.17;;;8.40;99.90;;;;;;2094564;28;20106;-74
2023/03/19 00:23:31;;;;;;;26.52;18.20;;;8.40;99.90;;;;;;2093631;28;20098;-74
2023/03/19 00:24:32;;;;;;;27.55;18.33;;;8.40;99.90;;;;;;2095297;28;20032;-74
2023/03/19 00:25:32;;;;;;;28.45;18.10;;;8.40;99.90;;;;;;2090490;28;20029;-74
2023/03/19 00:26:34;;;;;;;28.50;17.90;;;8.40;99.90;;;;;;2094693;28;20078;-74
2023/03/19 00:27:36;;;;;;;30.02;18.70;;;8.40;99.90;;;;;;2091732;28;20028;-74
2023/03/19 00:28:37;;;;;;;30.45;19.65;;;8.40;99.90;;;;;;2088517;28;20052;-75
2023/03/19 00:29:37;;;;;;;29.42;19.27;;;8.40;99.90;;;;;;2074936;28;20029;-76
2023/03/19 00:30:38;;;;;;;31.90;19.08;;;8.40;99.90;;;;;;2077838;28;20419;-76
2023/03/19 00:31:40;;;;;;;25.85;17.65;;;8.40;99.90;;;;;;2080932;28;20472;-75
2023/03/19 00:32:41;;;;;;;30.60;18.83;;;8.40;99.90;;;;;;2091553;28;20028;-75
2023/03/19 00:33:42;;;;;;;27.25;18.30;;;8.40;99.90;;;;;;2077636;28;20040;-74
2023/03/19 00:34:42;;;;;;;25.70;17.98;;;8.40;99.90;;;;;;2079255;28;20603;-74
2023/03/19 00:35:43;;;;;;;28.27;18.25;;;8.30;99.90;;;;;;2080366;28;20468;-74
2023/03/19 00:36:45;;;;;;;27.65;18.63;;;8.40;99.90;;;;;;2086283;28;20032;-74
2023/03/19 00:37:45;;;;;;;28.13;18.48;;;8.30;99.90;;;;;;2084589;28;20208;-73
2023/03/19 00:38:46;;;;;;;26.23;17.45;;;8.30;99.90;;;;;;2100616;28;20154;-73
2023/03/19 00:39:47;;;;;;;27.45;18.55;;;8.30;99.90;;;;;;2090115;28;20112;-73
2023/03/19 00:40:48;;;;;;;31.13;18.98;;;8.30;99.90;;;;;;2081091;28;20032;-74
2023/03/19 00:41:49;;;;;;;28.25;18.50;;;8.30;99.90;;;;;;2079508;28;20123;-75
2023/03/19 00:42:51;;;;;;;26.48;18.38;;;8.30;99.90;;;;;;2097468;28;20016;-76
2023/03/19 00:43:53;;;;;;;26.63;17.38;;;8.20;99.90;;;;;;2101848;28;20059;-75
2023/03/19 00:44:53;;;;;;;28.55;18.00;;;8.30;99.90;;;;;;2098024;28;20043;-73
2023/03/19 00:45:54;;;;;;;30.75;18.63;;;8.20;99.90;;;;;;2094033;28;20156;-75
2023/03/19 00:46:55;;;;;;;27.80;18.63;;;8.20;99.90;;;;;;2097763;28;20028;-75
2023/03/19 00:47:56;;;;;;;27.60;18.20;;;8.20;99.90;;;;;;2091846;28;20025;-74
2023/03/19 00:48:57;;;;;;;29.73;18.80;;;8.20;99.90;;;;;;2083774;28;20032;-73
2023/03/19 00:49:58;;;;;;;26.95;17.98;;;8.20;99.90;;;;;;2089140;28;20048;-74
2023/03/19 00:51:06;;;;;;;30.83;19.13;;;8.20;99.90;;;;;;2088724;28;20060;-73
2023/03/19 00:52:07;;;;;;;32.45;19.88;;;8.20;99.90;;;;;;2087031;28;20112;-74
2023/03/19 00:53:08;;;;;;;29.48;19.50;;;8.20;99.90;;;;;;2085013;28;20178;-74
2023/03/19 00:54:10;;;;;;;29.55;18.50;;;8.20;99.90;;;;;;2092907;28;20098;-74
2023/03/19 00:55:11;;;;;;;29.35;18.15;;;8.20;99.90;;;;;;2075445;28;20029;-74
2023/03/19 00:56:13;;;;;;;29.92;18.80;;;8.20;99.90;;;;;;2090216;28;20116;-74
2023/03/19 00:57:13;;;;;;;28.42;17.60;;;8.20;99.90;;;;;;2092825;28;20614;-74
2023/03/19 00:58:14;;;;;;;27.73;18.00;;;8.20;99.90;;;;;;2081011;28;20036;-75
2023/03/19 00:59:15;;;;;;;29.23;18.77;;;8.20;99.90;;;;;;2080691;28;20082;-75
2023/03/19 01:00:17;;;;;;;28.02;18.73;;;8.20;99.90;;;;;;2090684;28;20017;-75
2023/03/19 01:01:17;;;;;;;30.50;19.30;;;8.20;99.90;;;;;;2083692;28;20424;-74
2023/03/19 01:02:18;;;;;;;31.50;18.92;;;8.20;99.90;;;;;;2086692;28;20033;-74
2023/03/19 01:03:19;;;;;;;29.67;18.50;;;8.20;99.90;;;;;;2090223;28;20089;-75
2023/03/19 01:04:22;;;;;;;30.58;19.52;;;8.20;99.90;;;;;;2093009;28;20048;-75
2023/03/19 01:05:22;;;;;;;31.23;19.20;;;8.20;99.90;;;;;;2083116;28;20420;-75
2023/03/19 01:06:23;;;;;;;32.90;19.92;;;8.20;99.90;;;;;;2089376;28;20040;-75
2023/03/19 01:07:23;;;;;;;31.58;19.35;;;8.20;99.90;;;;;;2082234;28;20072;-74
2023/03/19 01:08:24;;;;;;;30.35;19.42;;;8.20;99.90;;;;;;2084396;28;20656;-74
2023/03/19 01:09:25;;;;;;;31.40;19.30;;;8.20;99.90;;;;;;2077274;28;20021;-75
2023/03/19 01:10:26;;;;;;;31.13;19.65;;;8.20;99.90;;;;;;2082167;28;20435;-74
2023/03/19 01:11:26;;;;;;;30.55;19.85;;;8.20;99.90;;;;;;2090069;28;20028;-74
2023/03/19 01:12:27;;;;;;;28.98;19.15;;;8.10;99.90;;;;;;2082331;28;20029;-72
2023/03/19 01:13:27;;;;;;;28.48;19.00;;;8.10;99.90;;;;;;2082862;28;20028;-75
2023/03/19 01:14:28;;;;;;;30.15;18.60;;;8.10;99.90;;;;;;2090778;28;20043;-74
2023/03/19 01:15:29;;;;;;;29.10;18.42;;;8.10;99.90;;;;;;2086336;28;20052;-75
2023/03/19 01:16:30;;;;;;;25.80;17.23;;;8.10;99.90;;;;;;2090758;28;20029;-74
2023/03/19 01:17:31;;;;;;;28.38;18.23;;;8.10;99.90;;;;;;2088179;28;20087;-75
2023/03/19 01:18:31;;;;;;;27.88;18.25;;;8.00;99.90;;;;;;2082357;28;20037;-74
2023/03/19 01:19:32;;;;;;;29.15;18.73;;;8.00;99.90;;;;;;2090020;28;20028;-74
2023/03/19 01:20:35;;;;;;;29.67;19.27;;;8.10;99.90;;;;;;2090719;28;20057;-73
2023/03/19 01:21:36;;;;;;;28.90;18.92;;;8.00;99.90;;;;;;2091199;28;20024;-74
2023/03/19 01:22:40;;;;;;;25.15;17.55;;;8.00;99.90;;;;;;2093589;28;20024;-75
2023/03/19 01:23:40;;;;;;;27.65;17.92;;;8.00;99.90;;;;;;2085105;28;20469;-75
2023/03/19 01:24:41;;;;;;;27.15;18.17;;;8.00;99.90;;;;;;2084782;28;20028;-74
2023/03/19 01:25:42;;;;;;;27.48;18.50;;;8.00;99.90;;;;;;2083974;28;20025;-74
2023/03/19 01:26:42;;;;;;;27.35;18.48;;;8.00;99.90;;;;;;2084620;28;20036;-75
2023/03/19 01:28:04;;;;;;;32.67;20.50;;;8.00;99.90;;;;;;2078536;28;20052;-75
2023/03/19 01:29:05;;;;;;;30.90;19.45;;;8.00;99.90;;;;;;2073659;28;20034;-73
2023/03/19 01:30:07;;;;;;;30.02;19.80;;;8.00;99.90;;;;;;2092727;28;20582;-74
2023/03/19 01:31:44;;;;;;;29.30;19.05;;;8.00;99.90;;;;;;2083500;28;20039;-74
2023/03/19 01:32:58;;;;;;;28.45;18.50;;;8.00;99.90;;;;;;2082587;28;20028;-74
2023/03/19 01:34:06;;;;;;;31.10;19.35;;;7.90;99.90;;;;;;2099615;28;20032;-74
2023/03/19 01:35:15;;;;;;;30.50;19.73;;;7.90;99.90;;;;;;2083695;28;20020;-73
2023/03/19 01:36:16;;;;;;;30.15;19.48;;;8.00;99.90;;;;;;2082383;28;20757;-73
2023/03/19 01:37:34;;;;;;;29.08;18.90;;;8.00;99.90;;;;;;2068415;28;20449;-74
2023/03/19 01:38:35;;;;;;;31.77;19.70;;;7.90;99.90;;;;;;2086760;28;20051;-73
2023/03/19 01:39:39;;;;;;;29.83;18.83;;;7.90;99.90;;;;;;2077809;28;20040;-74
2023/03/19 01:40:46;;;;;;;31.08;18.75;;;7.90;99.90;;;;;;2079293;28;20025;-74
2023/03/19 01:41:46;;;;;;;29.35;19.05;;;7.90;99.90;;;;;;2076906;28;20032;-75
2023/03/19 01:43:31;;;;;;;30.35;18.77;;;7.90;99.90;;;;;;2076117;28;20046;-75
2023/03/19 01:44:41;;;;;;;29.40;18.48;;;7.80;99.90;;;;;;2091352;28;20502;-75
2023/03/19 01:46:05;;;;;;;30.25;18.33;;;7.80;99.90;;;;;;2082416;28;20024;-75
2023/03/19 01:47:15;;;;;;;31.35;19.48;;;7.80;99.90;;;;;;2095465;28;20471;-73
2023/03/19 01:48:53;;;;;;;29.15;18.27;;;7.80;99.90;;;;;;2093196;28;20030;-75
2023/03/19 01:49:55;;;;;;;28.15;18.05;;;7.80;99.90;;;;;;2090002;28;20024;-74
2023/03/19 01:50:56;;;;;;;28.48;17.85;;;7.80;99.90;;;;;;2096722;28;20028;-74
2023/03/19 01:52:03;;;;;;;29.40;17.67;;;7.80;99.90;;;;;;2092387;28;20028;-77
2023/03/19 01:53:32;;;;;;;29.58;17.25;;;7.80;99.90;;;;;;2074533;28;20583;-77
2023/03/19 01:54:43;;;;;;;26.40;17.30;;;7.80;99.90;;;;;;2084002;28;20450;-78
2023/03/19 01:55:57;;;;;;;30.05;19.42;;;7.80;99.90;;;;;;2087965;28;20052;-78
2023/03/19 01:57:14;;;;;;;31.60;19.42;;;7.80;99.90;;;;;;2088738;28;20021;-77
2023/03/19 01:58:35;;;;;;;30.30;18.67;;;7.80;99.90;;;;;;2092319;28;20023;-78
2023/03/19 01:59:53;;;;;;;29.60;18.60;;;7.80;99.90;;;;;;2078236;28;20063;-77
2023/03/19 02:01:03;;;;;;;30.98;19.10;;;7.90;99.90;;;;;;2082652;28;20025;-77
2023/03/19 02:02:20;;;;;;;33.70;19.02;;;7.80;99.90;;;;;;2087369;28;20037;-78
2023/03/19 02:03:21;;;;;;;31.67;19.17;;;7.90;99.90;;;;;;2082584;28;20044;-77
2023/03/19 02:04:37;;;;;;;26.95;18.23;;;7.90;99.90;;;;;;2083765;28;20427;-77
2023/03/19 02:05:40;;;;;;;29.75;18.10;;;7.90;99.90;;;;;;2077366;28;20032;-78
2023/03/19 02:06:44;;;;;;;28.42;17.85;;;7.90;99.90;;;;;;2081465;28;20475;-78
2023/03/19 02:07:45;;;;;;;27.80;18.25;;;7.90;99.90;;;;;;2077955;28;20064;-77
2023/03/19 02:08:47;;;;;;;28.30;18.13;;;7.90;99.90;;;;;;2070302;28;20083;-76
2023/03/19 02:09:48;;;;;;;31.38;19.00;;;7.90;99.90;;;;;;2089813;28;20028;-79
2023/03/19 02:10:50;;;;;;;28.45;18.40;;;7.90;99.90;;;;;;2079757;28;20044;-78
2023/03/19 02:11:52;;;;;;;29.63;19.67;;;7.90;99.90;;;;;;2070686;28;20026;-79
2023/03/19 02:12:52;;;;;;;30.13;19.40;;;7.90;99.90;;;;;;2089040;28;20118;-76
2023/03/19 02:13:53;;;;;;;30.55;19.67;;;8.00;99.90;;;;;;2092121;28;20032;-78
2023/03/19 02:14:54;;;;;;;30.73;20.05;;;8.00;99.90;;;;;;2087538;28;20147;-77
2023/03/19 02:15:55;;;;;;;32.50;19.65;;;8.00;99.90;;;;;;2086420;28;20075;-78
2023/03/19 02:16:56;;;;;;;31.90;19.20;;;8.00;99.90;;;;;;2079779;28;20276;-76
2023/03/19 02:17:57;;;;;;;34.03;19.60;;;8.00;99.90;;;;;;2084090;28;20029;-78
2023/03/19 02:18:58;;;;;;;31.90;19.67;;;8.00;99.90;;;;;;2073662;28;20036;-78
2023/03/19 02:20:23;;;;;;;28.75;18.60;;;8.10;99.90;;;;;;2088697;28;20062;-78
2023/03/19 02:21:24;;;;;;;30.25;19.17;;;8.10;99.90;;;;;;2076250;28;20123;-77
2023/03/19 02:22:28;;;;;;;28.13;18.40;;;8.10;99.90;;;;;;2083861;28;20067;-78
2023/03/19 02:23:36;;;;;;;31.65;18.95;;;8.10;99.90;;;;;;2078330;28;20475;-77
2023/03/19 02:25:09;;;;;;;30.50;19.17;;;8.10;99.90;;;;;;2070475;28;20029;-79
2023/03/19 02:26:14;;;;;;;31.10;19.38;;;8.10;99.90;;;;;;2082438;28;20450;-79
2023/03/19 02:27:15;;;;;;;32.50;19.77;;;8.10;99.90;;;;;;2074924;28;20061;-78
2023/03/19 02:28:21;;;;;;;31.15;19.48;;;8.10;99.90;;;;;;2079575;28;20033;-78
2023/03/19 02:29:22;;;;;;;29.98;18.67;;;8.20;99.90;;;;;;2072836;28;20136;-77
2023/03/19 02:30:31;;;;;;;27.67;18.60;;;8.20;99.90;;;;;;2086460;28;20025;-78
2023/03/19 02:31:33;;;;;;;33.08;20.08;;;8.10;99.90;;;;;;2079125;28;20485;-78
2023/03/19 02:32:34;;;;;;;30.00;19.42;;;8.20;99.90;;;;;;2078137;28;20088;-78
2023/03/19 02:33:35;;;;;;;30.33;19.00;;;8.20;99.90;;;;;;2086319;28;20017;-78
2023/03/19 02:34:39;;;;;;;30.75;19.25;;;8.20;99.90;;;;;;2085467;28;20025;-78
2023/03/19 02:35:42;;;;;;;31.02;18.67;;;8.20;99.90;;;;;;2088989;28;20033;-76
2023/03/19 02:36:53;;;;;;;30.50;19.13;;;8.20;99.90;;;;;;2083853;28;20075;-78
2023/03/19 02:37:53;;;;;;;30.98;18.88;;;8.20;99.90;;;;;;2078062;28;20047;-79
2023/03/19 02:38:57;;;;;;;31.38;20.02;;;8.20;99.90;;;;;;2081660;28;20094;-79
2023/03/19 02:40:06;;;;;;;30.73;19.05;;;8.20;99.90;;;;;;2076140;28;20408;-78
2023/03/19 02:41:09;;;;;;;33.30;19.60;;;8.20;99.90;;;;;;2061624;28;20029;-79
2023/03/19 02:42:10;;;;;;;27.73;18.45;;;8.20;99.90;;;;;;2079940;28;20480;-77
2023/03/19 02:43:11;;;;;;;30.55;19.75;;;8.20;99.90;;;;;;2071586;28;20512;-79
2023/03/19 02:44:12;;;;;;;30.08;19.17;;;8.20;99.90;;;;;;2081851;28;20108;-79
2023/03/19 02:45:13;;;;;;;29.90;19.38;;;8.20;99.90;;;;;;2083555;28;20029;-78
2023/03/19 02:46:14;;;;;;;33.38;19.80;;;8.20;99.90;;;;;;2084051;28;20037;-77
2023/03/19 02:47:15;;;;;;;30.98;19.55;;;8.20;99.90;;;;;;2083672;28;20214;-78
2023/03/19 02:48:15;;;;;;;29.20;19.30;;;8.30;99.90;;;;;;2095902;28;20082;-78
2023/03/19 02:49:16;;;;;;;30.90;18.60;;;8.20;99.90;;;;;;2091752;28;20530;-78
2023/03/19 02:50:17;;;;;;;31.33;19.85;;;8.20;99.90;;;;;;2083524;28;20112;-77
2023/03/19 02:51:18;;;;;;;30.92;18.92;;;8.30;99.90;;;;;;2076614;28;20041;-78
2023/03/19 02:52:20;;;;;;;29.52;18.98;;;8.30;99.90;;;;;;2084634;28;20017;-78
2023/03/19 02:53:21;;;;;;;28.17;18.65;;;8.30;99.90;;;;;;2081264;28;20528;-77
2023/03/19 02:54:21;;;;;;;32.38;19.63;;;8.30;99.90;;;;;;2092081;28;20033;-78
2023/03/19 02:55:22;;;;;;;31.88;19.27;;;8.30;99.90;;;;;;2085300;28;20462;-78
2023/03/19 02:56:23;;;;;;;29.38;18.92;;;8.30;99.90;;;;;;2085555;28;20021;-79
2023/03/19 02:57:24;;;;;;;29.42;18.67;;;8.20;99.90;;;;;;2082050;28;20069;-78
2023/03/19 02:58:25;;;;;;;31.67;18.95;;;8.30;99.90;;;;;;2089791;28;20029;-78
2023/03/19 02:59:25;;;;;;;33.83;19.70;;;8.30;99.90;;;;;;2087964;28;20024;-78
2023/03/19 03:00:27;;;;;;;28.70;18.17;;;8.20;99.90;;;;;;2081508;28;20543;-78
2023/03/19 03:01:28;;;;;;;31.73;19.55;;;8.20;99.90;;;;;;2087462;28;20052;-77
2023/03/19 03:02:29;;;;;;;31.58;19.52;;;8.20;99.90;;;;;;2081568;28;20507;-76
2023/03/19 03:03:30;;;;;;;28.30;18.38;;;8.20;99.90;;;;;;2081273;28;20104;-78
2023/03/19 03:04:32;;;;;;;30.42;19.23;;;8.20;99.90;;;;;;2089778;28;20103;-78
2023/03/19 03:05:33;;;;;;;28.80;18.58;;;8.20;99.90;;;;;;2078383;28;20036;-76
2023/03/19 03:06:34;;;;;;;30.92;19.58;;;8.20;99.90;;;;;;2083205;28;20025;-79
2023/03/19 03:07:36;;;;;;;32.33;19.67;;;8.20;99.90;;;;;;2072687;28;22631;-78
2023/03/19 03:08:37;;;;;;;31.00;19.83;;;8.20;99.90;;;;;;2085555;28;20025;-79
2023/03/19 03:09:37;;;;;;;32.25;18.90;;;8.20;99.90;;;;;;2075088;28;20072;-78
2023/03/19 03:10:38;;;;;;;29.25;19.63;;;8.20;99.90;;;;;;2079645;28;20575;-79
2023/03/19 03:11:40;;;;;;;49.42;19.88;;;8.10;99.90;;;;;;2084063;28;20099;-79
2023/03/19 03:12:42;;;;;;;32.47;19.42;;;8.10;99.90;;;;;;2089888;28;20024;-77
2023/03/19 03:13:44;;;;;;;30.42;19.65;;;8.20;99.90;;;;;;2083862;28;20024;-77
2023/03/19 03:14:45;;;;;;;29.65;20.35;;;8.10;99.90;;;;;;2099615;28;20104;-77
2023/03/19 03:15:45;;;;;;;32.58;19.58;;;8.10;99.90;;;;;;2092764;28;20441;-76
2023/03/19 03:16:46;;;;;;;29.52;19.33;;;8.10;99.90;;;;;;2094144;28;20017;-76
2023/03/19 03:17:47;;;;;;;30.05;19.15;;;8.00;99.90;;;;;;2084609;28;20083;-74
2023/03/19 03:18:47;;;;;;;28.90;19.13;;;8.00;99.90;;;;;;2084748;28;20186;-75
2023/03/19 03:19:48;;;;;;;30.98;19.48;;;8.00;99.90;;;;;;2088603;28;20071;-75
2023/03/19 03:20:49;;;;;;;29.88;19.30;;;8.00;99.90;;;;;;2094761;28;20073;-74
2023/03/19 03:21:50;;;;;;;28.80;18.85;;;8.00;99.90;;;;;;2093882;28;20044;-75
2023/03/19 03:22:50;;;;;;;29.40;18.80;;;7.90;99.90;;;;;;2097787;28;20621;-75
2023/03/19 03:23:51;;;;;;;27.92;18.80;;;8.00;99.90;;;;;;2100811;28;20100;-75
2023/03/19 03:24:52;;;;;;;28.10;18.02;;;7.90;99.90;;;;;;2092359;28;20027;-74
2023/03/19 03:25:52;;;;;;;27.50;17.33;;;7.90;99.90;;;;;;2091218;28;20037;-74
2023/03/19 03:26:53;;;;;;;28.70;17.35;;;7.90;99.90;;;;;;2097260;28;20070;-74
2023/03/19 03:27:54;;;;;;;27.50;17.75;;;7.90;99.90;;;;;;2078549;28;20112;-75
2023/03/19 03:28:55;;;;;;;27.15;17.27;;;7.90;99.90;;;;;;2080870;28;20472;-75
2023/03/19 03:29:56;;;;;;;25.90;17.08;;;7.90;99.90;;;;;;2096268;28;20024;-74
2023/03/19 03:31:01;;;;;;;27.25;18.45;;;7.80;99.90;;;;;;2097464;28;20035;-74
2023/03/19 03:32:01;;;;;;;29.13;18.35;;;7.80;99.90;;;;;;2089791;28;20087;-74
2023/03/19 03:33:03;;;;;;;30.40;18.98;;;7.80;99.90;;;;;;2086409;28;20024;-74
2023/03/19 03:34:03;;;;;;;32.38;19.65;;;7.80;99.90;;;;;;2084017;28;20044;-74
2023/03/19 03:35:05;;;;;;;34.90;19.92;;;7.80;99.90;;;;;;2088333;28;20037;-74
2023/03/19 03:36:07;;;;;;;31.00;19.42;;;7.80;99.90;;;;;;2094816;28;20526;-75
2023/03/19 03:37:08;;;;;;;30.38;19.02;;;7.80;99.90;;;;;;2094989;28;20422;-75
2023/03/19 03:38:10;;;;;;;29.50;18.05;;;7.80;99.90;;;;;;2096195;28;20033;-75
2023/03/19 03:39:10;;;;;;;28.90;18.50;;;7.80;99.90;;;;;;2093413;28;20090;-75
2023/03/19 03:40:13;;;;;;;25.88;17.52;;;7.80;99.90;;;;;;2097998;28;20447;-75
2023/03/19 03:41:13;;;;;;;26.35;17.02;;;7.80;99.90;;;;;;2092663;28;20037;-75
2023/03/19 03:42:14;;;;;;;28.00;17.02;;;7.70;99.90;;;;;;2086368;28;20515;-74
2023/03/19 03:43:15;;;;;;;31.00;18.25;;;7.70;99.90;;;;;;2071157;28;20062;-74
2023/03/19 03:44:16;;;;;;;27.80;17.33;;;7.70;99.90;;;;;;2078351;28;20026;-74
2023/03/19 03:45:16;;;;;;;24.00;16.30;;;7.70;99.90;;;;;;2079732;28;20037;-74
2023/03/19 03:46:19;;;;;;;27.33;17.08;;;7.60;99.90;;;;;;2088122;28;20051;-74
2023/03/19 03:47:20;;;;;;;27.17;16.88;;;7.60;99.90;;;;;;2079465;28;20485;-74
2023/03/19 03:48:21;;;;;;;25.95;17.42;;;7.60;99.90;;;;;;2079699;28;20258;-74
2023/03/19 03:49:22;;;;;;;25.70;17.85;;;7.60;99.90;;;;;;2073555;28;20444;-73
2023/03/19 03:50:23;;;;;;;29.45;19.17;;;7.60;99.90;;;;;;2081141;28;20376;-73
2023/03/19 03:51:27;;;;;;;29.67;20.05;;;7.50;99.90;;;;;;2088537;28;20131;-74
2023/03/19 03:52:32;;;;;;;28.48;18.13;;;7.60;99.90;;;;;;2087487;28;20537;-73
2023/03/19 03:53:33;;;;;;;30.58;18.70;;;7.60;99.90;;;;;;2083421;28;20047;-73
2023/03/19 03:54:34;;;;;;;31.20;19.42;;;7.60;99.90;;;;;;2081470;28;20044;-73
2023/03/19 03:55:35;;;;;;;30.73;18.85;;;7.60;99.90;;;;;;2073991;28;20025;-73
2023/03/19 03:56:36;;;;;;;29.63;18.58;;;7.60;99.90;;;;;;2083370;28;20527;-73
2023/03/19 03:57:37;;;;;;;28.10;18.30;;;7.60;99.90;;;;;;2065242;28;20033;-73
2023/03/19 03:58:38;;;;;;;30.77;19.15;;;7.60;99.90;;;;;;2089914;28;20029;-74
2023/03/19 03:59:38;;;;;;;30.27;18.33;;;7.60;99.90;;;;;;2085521;28;20028;-74
2023/03/19 04:00:39;;;;;;;31.23;19.30;;;7.60;99.90;;;;;;2089725;28;20023;-73
2023/03/19 04:01:40;;;;;;;28.30;18.33;;;7.60;99.90;;;;;;2084874;28;20025;-75
2023/03/19 04:02:40;;;;;;;30.92;19.40;;;7.60;99.90;;;;;;2089450;28;20115;-74
2023/03/19 04:03:44;;;;;;;30.92;19.00;;;7.60;99.90;;;;;;2079420;28;20055;-74
2023/03/19 04:04:45;;;;;;;31.40;20.00;;;7.60;99.90;;;;;;2081372;28;20024;-74
2023/03/19 04:05:45;;;;;;;30.27;19.00;;;7.60;99.90;;;;;;2073202;28;20253;-74
2023/03/19 04:06:46;;;;;;;29.05;18.20;;;7.60;99.90;;;;;;2075063;28;20342;-74
2023/03/19 04:07:54;;;;;;;28.65;18.15;;;7.70;99.90;;;;;;2080363;28;20033;-74
2023/03/19 04:08:56;;;;;;;30.38;18.95;;;7.60;99.90;;;;;;2077612;28;20025;-74
2023/03/19 04:09:57;;;;;;;29.92;18.80;;;7.60;99.90;;;;;;2069853;28;20675;-75
2023/03/19 04:10:58;;;;;;;31.27;18.92;;;7.60;99.90;;;;;;2087855;28;20021;-75
2023/03/19 04:11:59;;;;;;;29.90;19.00;;;7.60;99.90;;;;;;2086745;28;20021;-76
2023/03/19 04:13:00;;;;;;;29.88;18.88;;;7.60;99.90;;;;;;2085141;28;20028;-75
2023/03/19 04:14:04;;;;;;;31.23;18.77;;;7.60;99.90;;;;;;2068696;28;20040;-74
2023/03/19 04:15:09;;;;;;;28.80;18.50;;;7.60;99.90;;;;;;2070067;28;20017;-75
2023/03/19 04:16:12;;;;;;;28.25;17.92;;;7.60;99.90;;;;;;2077036;28;20038;-73
2023/03/19 04:17:13;;;;;;;29.73;18.58;;;7.60;99.90;;;;;;2083584;28;20084;-73
2023/03/19 04:18:14;;;;;;;30.00;18.85;;;7.60;99.90;;;;;;2087263;28;20446;-74
2023/03/19 04:19:15;;;;;;;29.02;19.00;;;7.60;99.90;;;;;;2086304;28;20029;-74
2023/03/19 04:20:17;;;;;;;28.40;18.70;;;7.60;99.90;;;;;;2084880;28;20327;-74
2023/03/19 04:21:18;;;;;;;30.92;18.63;;;7.60;99.90;;;;;;2080238;28;20396;-74
2023/03/19 04:22:19;;;;;;;27.05;18.65;;;7.60;99.90;;;;;;2083988;28;20036;-74
2023/03/19 04:23:19;;;;;;;26.35;17.20;;;7.70;99.90;;;;;;2084101;28;20363;-75
2023/03/19 04:24:20;;;;;;;26.13;17.35;;;7.60;99.90;;;;;;2090614;28;20036;-74
2023/03/19 04:25:21;;;;;;;27.15;17.70;;;7.70;99.90;;;;;;2090838;28;20066;-74
2023/03/19 04:26:22;;;;;;;28.88;17.63;;;7.60;99.90;;;;;;2086570;28;20033;-74
2023/03/19 04:27:22;;;;;;;31.05;18.73;;;7.70;99.90;;;;;;2083284;28;20124;-74
2023/03/19 04:28:23;;;;;;;32.08;19.23;;;7.70;99.90;;;;;;2082702;28;20025;-73
2023/03/19 04:29:24;;;;;;;32.10;19.05;;;7.70;99.90;;;;;;2078139;28;20606;-73
2023/03/19 04:30:25;;;;;;;29.85;19.13;;;7.70;99.90;;;;;;2084601;28;20037;-74
2023/03/19 04:31:26;;;;;;;31.65;19.20;;;7.70;99.90;;;;;;2078856;28;20033;-73
2023/03/19 04:32:26;;;;;;;33.65;20.42;;;7.70;99.90;;;;;;2089286;28;20025;-74
2023/03/19 04:33:28;;;;;;;34.20;20.25;;;7.70;99.90;;;;;;2085065;28;20116;-73
2023/03/19 04:34:29;;;;;;;29.42;18.60;;;7.80;99.90;;;;;;2074695;28;20059;-73
2023/03/19 04:35:30;;;;;;;31.38;19.83;;;7.80;99.90;;;;;;2072980;28;20030;-72
2023/03/19 04:36:32;;;;;;;29.77;19.05;;;7.80;99.90;;;;;;2084728;28;20585;-74
2023/03/19 04:37:32;;;;;;;27.63;18.88;;;7.80;99.90;;;;;;2076304;28;20029;-73
2023/03/19 04:38:34;;;;;;;28.48;19.30;;;7.80;99.90;;;;;;2086134;28;20143;-74
2023/03/19 04:39:34;;;;;;;29.95;19.10;;;7.80;99.90;;;;;;2076237;28;20361;-74
2023/03/19 04:40:35;;;;;;;28.80;18.60;;;7.80;99.90;;;;;;2086510;28;20036;-74
2023/03/19 04:41:39;;;;;;;28.75;19.00;;;7.80;99.90;;;;;;2085616;28;20376;-74
2023/03/19 04:42:59;;;;;;;;;;;7.80;99.90;;;;;;2079400;28;20059;-74
2023/03/19 04:44:06;;;;;;;29.88;18.45;;;7.80;99.90;;;;;;2086006;28;19916;-74
2023/03/19 04:45:08;;;;;;;31.00;18.83;;;7.80;99.90;;;;;;2069810;28;20026;-74
2023/03/19 04:46:09;;;;;;;30.48;18.77;;;7.80;99.90;;;;;;2074524;28;20032;-75
2023/03/19 04:47:10;;;;;;;29.13;18.95;;;7.90;99.90;;;;;;2082255;28;20032;-73
2023/03/19 04:48:22;;;;;;;28.90;18.17;;;7.90;99.90;;;;;;2076939;28;20080;-73
2023/03/19 04:49:26;;;;;;;30.33;18.80;;;7.90;99.90;;;;;;2070125;28;20506;-74
2023/03/19 04:50:29;;;;;;;27.73;18.67;;;7.90;99.90;;;;;;2090601;28;20893;-74
2023/03/19 04:51:30;;;;;;;29.15;18.25;;;7.90;99.90;;;;;;2084051;28;20098;-74
2023/03/19 04:52:30;;;;;;;28.33;17.73;;;7.80;99.90;;;;;;2088874;28;20086;-75
2023/03/19 04:53:31;;;;;;;31.13;18.85;;;7.80;99.90;;;;;;2084187;28;20064;-74
2023/03/19 04:54:32;;;;;;;30.65;18.63;;;7.80;99.90;;;;;;2082515;28;20525;-74
2023/03/19 04:55:33;;;;;;;26.92;17.67;;;7.80;99.90;;;;;;2081412;28;20044;-74
2023/03/19 04:56:39;;;;;;;27.52;17.58;;;7.80;99.90;;;;;;2082405;28;20032;-74
2023/03/19 04:57:39;;;;;;;28.60;18.63;;;7.80;99.90;;;;;;2080673;28;20053;-74
2023/03/19 04:58:40;;;;;;;27.27;17.35;;;7.80;99.90;;;;;;2090849;28;20081;-73
2023/03/19 04:59:42;;;;;;;27.20;17.08;;;7.80;99.90;;;;;;2081399;28;20032;-74
2023/03/19 05:00:46;;;;;;;26.92;18.10;;;7.70;99.90;;;;;;2082412;28;20093;-73
2023/03/19 05:01:50;;;;;;;27.67;17.92;;;7.70;99.90;;;;;;2074078;28;20467;-74
2023/03/19 05:02:55;;;;;;;27.48;17.60;;;7.80;99.90;;;;;;2073943;28;20064;-75
2023/03/19 05:03:56;;;;;;;24.65;16.65;;;7.70;99.90;;;;;;2079843;28;20112;-73
2023/03/19 05:04:57;;;;;;;28.10;17.23;;;7.70;99.90;;;;;;2080711;28;20040;-74
2023/03/19 05:05:57;;;;;;;32.10;19.02;;;7.70;99.90;;;;;;2078855;28;20108;-74
2023/03/19 05:06:58;;;;;;;27.92;18.27;;;7.70;99.90;;;;;;2076857;28;20029;-74
2023/03/19 05:07:59;;;;;;;27.50;17.45;;;7.70;99.90;;;;;;2077232;28;20573;-74
2023/03/19 05:09:01;;;;;;;29.52;18.67;;;7.60;99.90;;;;;;2070790;28;20055;-72
2023/03/19 05:10:01;;;;;;;29.05;18.50;;;7.60;99.90;;;;;;2088857;28;20100;-74
2023/03/19 05:11:03;;;;;;;27.25;17.95;;;7.60;99.90;;;;;;2069971;28;20033;-74
2023/03/19 05:12:12;;;;;;;28.88;17.85;;;7.60;99.90;;;;;;2078682;28;20128;-74
2023/03/19 05:13:20;;;;;;;27.52;17.35;;;7.60;99.90;;;;;;2073265;28;20099;-74
2023/03/19 05:14:24;;;;;;;27.85;17.80;;;7.50;99.90;;;;;;2075540;28;20056;-73
2023/03/19 05:15:44;;;;;;;27.98;17.38;;;7.50;99.90;;;;;;2087934;28;20509;-74
2023/03/19 05:16:46;;;;;;;27.58;17.73;;;7.50;99.90;;;;;;2088071;28;20021;-73
2023/03/19 05:17:47;;;;;;;26.73;16.92;;;7.50;99.90;;;;;;2081477;28;20031;-73
2023/03/19 05:18:55;;;;;;;28.05;17.63;;;7.50;99.90;;;;;;2082236;28;20040;-73
2023/03/19 05:19:57;;;;;;;29.27;18.40;;;7.50;99.90;;;;;;2075094;28;20121;-74
2023/03/19 05:20:59;;;;;;;27.50;17.27;;;7.50;99.90;;;;;;2072713;28;20040;-73
2023/03/19 05:22:00;;;;;;;28.83;18.23;;;7.50;99.90;;;;;;2081518;28;20029;-74
2023/03/19 05:23:03;;;;;;;30.15;17.60;;;7.50;99.90;;;;;;2081785;28;20451;-73
2023/03/19 05:24:17;;;;;;;27.50;17.75;;;7.40;99.90;;;;;;2084422;28;20040;-73